Time;durP1;ratioP1;P1;durP2;ratioP2;P2;SDS_P1;SDS_P2;PMS_P1;PMS_P2;Temp;Humidity;BMP_temperature;BMP_pressure;BME280_temperature;BME280_humidity;BME280_pressure;Samples;Min_cycle;Max_cycle;Signal;HPM_P1;HPM_P2
2021/04/07 00:02:17;;;;;;;3.80;3.50;;;1.40;99.90;;;;;;5011772;28;20638;-39
2021/04/07 00:04:48;;;;;;;3.70;3.40;;;1.40;99.90;;;;;;5012340;28;20214;-40
2021/04/07 00:07:15;;;;;;;5.13;3.00;;;1.40;99.90;;;;;;5012207;28;20209;-39
2021/04/07 00:09:42;;;;;;;3.47;3.17;;;1.40;99.90;;;;;;5012303;28;20300;-39
2021/04/07 00:12:10;;;;;;;4.20;3.03;;;1.40;99.90;;;;;;5012142;28;20209;-40
2021/04/07 00:14:37;;;;;;;4.82;3.38;;;1.30;99.90;;;;;;5012171;28;20232;-41
2021/04/07 00:17:04;;;;;;;3.92;3.63;;;1.30;99.90;;;;;;5011861;28;20268;-40
2021/04/07 00:19:31;;;;;;;3.60;3.30;;;1.30;99.90;;;;;;5011970;28;20213;-40
2021/04/07 00:21:58;;;;;;;4.70;3.72;;;1.30;99.90;;;;;;5012203;28;20296;-40
2021/04/07 00:24:25;;;;;;;3.60;3.30;;;1.30;99.90;;;;;;5013126;28;20299;-39
2021/04/07 00:26:52;;;;;;;4.18;3.25;;;1.30;99.90;;;;;;5015978;28;20237;-39
2021/04/07 00:29:20;;;;;;;3.83;3.50;;;1.40;99.90;;;;;;5017400;28;20205;-39
2021/04/07 00:31:47;;;;;;;3.95;3.55;;;1.40;99.90;;;;;;5015999;28;20292;-40
2021/04/07 00:34:15;;;;;;;4.57;4.10;;;1.40;99.90;;;;;;5015915;28;20213;-40
2021/04/07 00:36:42;;;;;;;4.93;3.65;;;1.50;99.90;;;;;;5015752;28;20269;-39
2021/04/07 00:39:08;;;;;;;4.00;3.60;;;1.50;99.90;;;;;;5015723;28;20687;-40
2021/04/07 00:41:35;;;;;;;3.97;3.60;;;1.40;99.90;;;;;;5015530;28;20239;-40
2021/04/07 00:44:03;;;;;;;6.95;4.00;;;1.40;99.90;;;;;;5015429;28;20747;-40
2021/04/07 00:46:35;;;;;;;4.85;3.60;;;1.40;99.90;;;;;;5015735;28;20228;-40
2021/04/07 00:49:04;;;;;;;3.97;3.58;;;1.40;99.90;;;;;;5015628;28;20213;-40
2021/04/07 00:51:31;;;;;;;4.45;4.05;;;1.40;99.90;;;;;;5015531;28;20209;-40
2021/04/07 00:53:58;;;;;;;4.55;4.13;;;1.40;99.90;;;;;;5015463;28;20221;-39
2021/04/07 00:56:25;;;;;;;4.88;4.25;;;1.40;99.90;;;;;;5015189;28;20347;-39
2021/04/07 00:58:52;;;;;;;4.07;3.67;;;1.40;99.90;;;;;;5015453;28;20300;-39
2021/04/07 01:01:19;;;;;;;6.13;4.28;;;1.40;99.90;;;;;;5015394;28;20304;-39
2021/04/07 01:03:46;;;;;;;11.00;7.97;;;1.40;99.90;;;;;;5015533;28;20211;-40
2021/04/07 01:06:14;;;;;;;4.38;3.97;;;1.50;99.90;;;;;;5015227;28;20324;-39
2021/04/07 01:08:41;;;;;;;4.65;4.03;;;1.50;99.90;;;;;;5015201;28;20209;-39
2021/04/07 01:11:08;;;;;;;6.50;4.22;;;1.50;99.90;;;;;;5015032;28;20676;-39
2021/04/07 01:13:35;;;;;;;4.43;4.03;;;1.60;99.90;;;;;;5014961;28;20651;-39
2021/04/07 01:16:03;;;;;;;5.50;3.92;;;1.50;99.90;;;;;;5014870;28;20233;-39
2021/04/07 01:18:32;;;;;;;4.22;3.65;;;1.50;99.90;;;;;;5015063;28;20300;-39
2021/04/07 01:21:00;;;;;;;6.68;3.88;;;1.50;99.90;;;;;;5014864;28;20219;-39
2021/04/07 01:23:29;;;;;;;4.60;3.85;;;1.50;99.90;;;;;;5014739;28;20304;-39
2021/04/07 01:25:56;;;;;;;4.32;4.03;;;1.50;99.90;;;;;;5014697;28;20265;-40
2021/04/07 01:28:28;;;;;;;4.85;4.18;;;1.50;99.90;;;;;;5014780;28;20205;-39
2021/04/07 01:30:55;;;;;;;4.15;3.85;;;1.60;99.90;;;;;;5014932;28;20296;-40
2021/04/07 01:33:23;;;;;;;5.22;4.30;;;1.60;99.90;;;;;;5014672;28;20251;-39
2021/04/07 01:35:51;;;;;;;4.40;3.65;;;1.60;99.90;;;;;;5013311;28;20210;-40
2021/04/07 01:38:18;;;;;;;4.93;4.00;;;1.60;99.90;;;;;;5014628;28;20303;-41
2021/04/07 01:40:46;;;;;;;5.00;4.05;;;1.60;99.90;;;;;;5014571;28;20243;-39
2021/04/07 01:43:16;;;;;;;4.55;4.25;;;1.60;99.90;;;;;;5014826;28;20682;-39
2021/04/07 01:45:44;;;;;;;4.70;4.13;;;1.60;99.90;;;;;;5014511;28;20234;-39
2021/04/07 01:48:13;;;;;;;4.38;3.97;;;1.60;99.90;;;;;;5014313;28;20571;-39
2021/04/07 01:50:41;;;;;;;5.55;4.95;;;1.50;99.90;;;;;;5014174;28;20209;-40
2021/04/07 01:53:09;;;;;;;5.07;4.63;;;1.50;99.90;;;;;;5014294;28;20213;-40
2021/04/07 01:55:36;;;;;;;4.50;3.70;;;1.50;99.90;;;;;;5014404;28;20290;-41
2021/04/07 01:58:03;;;;;;;4.68;3.90;;;1.40;99.90;;;;;;5014338;28;20321;-41
2021/04/07 02:00:31;;;;;;;5.43;4.22;;;1.40;99.90;;;;;;5014228;28;20220;-41
2021/04/07 02:03:00;;;;;;;5.07;4.68;;;1.30;99.90;;;;;;5014107;28;20209;-41
2021/04/07 02:05:27;;;;;;;5.80;4.00;;;1.30;99.90;;;;;;5013998;28;20225;-41
2021/04/07 02:07:54;;;;;;;4.03;3.65;;;1.20;99.90;;;;;;5014082;28;20455;-41
2021/04/07 02:10:21;;;;;;;3.67;3.47;;;1.20;99.90;;;;;;5014013;28;20241;-40
2021/04/07 02:12:51;;;;;;;5.53;3.92;;;1.20;99.90;;;;;;5014053;28;20293;-41
2021/04/07 02:15:18;;;;;;;5.82;4.30;;;1.20;99.90;;;;;;5013930;28;20237;-39
2021/04/07 02:17:47;;;;;;;4.55;4.13;;;1.20;99.90;;;;;;5013708;28;20229;-40
2021/04/07 02:20:15;;;;;;;4.35;3.90;;;1.10;99.90;;;;;;5013713;28;20245;-40
2021/04/07 02:22:42;;;;;;;4.55;3.90;;;1.10;99.90;;;;;;5013950;28;20268;-39
2021/04/07 02:25:11;;;;;;;4.47;3.72;;;1.10;99.90;;;;;;5013667;28;20304;-39
2021/04/07 02:27:39;;;;;;;4.18;3.78;;;1.00;99.90;;;;;;5013422;28;20256;-39
2021/04/07 02:30:08;;;;;;;6.28;4.25;;;0.90;99.90;;;;;;5013661;28;20245;-39
2021/04/07 02:32:35;;;;;;;6.20;4.53;;;0.90;99.90;;;;;;5013815;28;20287;-40
2021/04/07 02:35:04;;;;;;;4.57;4.18;;;0.90;99.90;;;;;;5013359;28;20209;-39
2021/04/07 02:37:31;;;;;;;3.80;3.55;;;0.90;99.90;;;;;;5013262;28;20320;-40
2021/04/07 02:39:59;;;;;;;4.85;3.72;;;0.90;99.90;;;;;;5013492;28;20296;-39
2021/04/07 02:42:26;;;;;;;5.15;4.03;;;0.90;99.90;;;;;;5013488;28;20319;-39
2021/04/07 02:44:52;;;;;;;4.90;4.20;;;0.80;99.90;;;;;;5013253;28;20296;-38
2021/04/07 02:47:20;;;;;;;6.25;4.38;;;0.90;99.90;;;;;;5012814;28;20629;-38
2021/04/07 02:49:47;;;;;;;7.13;4.70;;;0.90;99.90;;;;;;5013081;28;20209;-38
2021/04/07 02:52:15;;;;;;;4.82;4.30;;;0.90;99.90;;;;;;5013253;28;20244;-39
2021/04/07 02:54:41;;;;;;;8.25;5.13;;;0.90;99.90;;;;;;5013574;28;20218;-40
2021/04/07 02:57:08;;;;;;;5.80;5.30;;;0.90;99.90;;;;;;5013291;28;20699;-40
2021/04/07 02:59:36;;;;;;;6.30;4.63;;;0.90;99.90;;;;;;5013194;28;20217;-40
2021/04/07 03:02:05;;;;;;;3.85;3.55;;;0.90;99.90;;;;;;5013024;28;20309;-40
2021/04/07 03:04:33;;;;;;;4.93;4.53;;;0.90;99.90;;;;;;5013325;28;20300;-40
2021/04/07 03:07:00;;;;;;;4.35;4.00;;;0.80;99.90;;;;;;5012952;28;20668;-40
2021/04/07 03:09:28;;;;;;;5.20;4.47;;;0.80;99.90;;;;;;5012994;28;20267;-40
2021/04/07 03:11:55;;;;;;;4.53;3.80;;;0.80;99.90;;;;;;5012856;28;20355;-39
2021/04/07 03:14:23;;;;;;;3.90;3.60;;;0.90;99.90;;;;;;5013276;28;20237;-39
2021/04/07 03:16:50;;;;;;;3.40;3.17;;;0.90;99.90;;;;;;5012927;28;20233;-40
2021/04/07 03:19:17;;;;;;;3.95;3.58;;;0.90;99.90;;;;;;5012769;28;20735;-39
2021/04/07 03:21:44;;;;;;;4.45;4.03;;;0.90;99.90;;;;;;5012801;28;20240;-39
2021/04/07 03:24:11;;;;;;;4.75;3.97;;;0.90;99.90;;;;;;5012688;28;20210;-39
2021/04/07 03:26:39;;;;;;;4.15;3.85;;;0.90;99.90;;;;;;5012542;28;20735;-38
2021/04/07 03:29:06;;;;;;;4.40;4.10;;;0.80;99.90;;;;;;5012615;28;20213;-38
2021/04/07 03:31:33;;;;;;;4.60;4.20;;;0.80;99.90;;;;;;5012768;28;20259;-38
2021/04/07 03:34:00;;;;;;;4.20;3.83;;;0.80;99.90;;;;;;5012612;28;20213;-38
2021/04/07 03:36:27;;;;;;;4.10;3.80;;;0.80;99.90;;;;;;5012749;28;20613;-38
2021/04/07 03:38:54;;;;;;;4.22;3.67;;;0.80;99.90;;;;;;5012372;28;20304;-37
2021/04/07 03:41:21;;;;;;;4.22;3.83;;;0.80;99.90;;;;;;5012697;28;20308;-38
2021/04/07 03:43:49;;;;;;;4.00;3.70;;;0.80;99.90;;;;;;5012662;28;20307;-38
2021/04/07 03:46:17;;;;;;;4.32;3.92;;;0.80;99.90;;;;;;5012369;28;20694;-38
2021/04/07 03:48:44;;;;;;;4.03;3.72;;;0.80;99.90;;;;;;5012558;28;20299;-38
2021/04/07 03:51:11;;;;;;;3.97;3.63;;;0.80;99.90;;;;;;5012409;28;20583;-38
2021/04/07 03:53:38;;;;;;;5.50;4.18;;;0.70;99.90;;;;;;5012192;28;20210;-38
2021/04/07 03:56:06;;;;;;;4.07;3.72;;;0.70;99.90;;;;;;5012731;28;20441;-38
2021/04/07 03:58:33;;;;;;;3.83;3.53;;;0.70;99.90;;;;;;5012533;28;20259;-38
2021/04/07 04:01:01;;;;;;;4.57;4.18;;;0.70;99.90;;;;;;5015942;28;20259;-38
2021/04/07 04:03:27;;;;;;;5.07;4.32;;;0.80;99.90;;;;;;5015997;28;20264;-38
2021/04/07 04:05:55;;;;;;;4.65;4.00;;;0.80;99.90;;;;;;5015976;28;20299;-40
2021/04/07 04:08:21;;;;;;;5.38;4.18;;;0.80;99.90;;;;;;5015931;28;20215;-37
2021/04/07 04:10:48;;;;;;;4.47;4.07;;;0.80;99.90;;;;;;5016333;28;20300;-38
2021/04/07 04:13:15;;;;;;;4.32;3.58;;;0.80;99.90;;;;;;5016345;28;20213;-38
2021/04/07 04:15:42;;;;;;;4.75;4.35;;;0.80;99.90;;;;;;5016238;28;20292;-38
2021/04/07 04:18:11;;;;;;;5.30;4.80;;;0.80;99.90;;;;;;5015278;28;20728;-38
2021/04/07 04:20:38;;;;;;;5.38;4.57;;;0.80;99.90;;;;;;5016009;28;20239;-37
2021/04/07 04:23:06;;;;;;;4.75;4.35;;;0.70;99.90;;;;;;5016067;28;20640;-38
2021/04/07 04:25:33;;;;;;;6.75;4.15;;;0.70;99.90;;;;;;5015780;28;20295;-38
2021/04/07 04:28:00;;;;;;;5.25;4.75;;;0.60;99.90;;;;;;5016007;28;20297;-38
2021/04/07 04:30:27;;;;;;;5.13;4.72;;;0.60;99.90;;;;;;5015939;28;20205;-39
2021/04/07 04:32:56;;;;;;;5.15;4.65;;;0.60;99.90;;;;;;5015562;28;20305;-39
2021/04/07 04:35:25;;;;;;;4.75;4.35;;;0.60;99.90;;;;;;5015660;28;20217;-38
2021/04/07 04:37:53;;;;;;;5.25;4.75;;;0.50;99.90;;;;;;5015749;28;20229;-38
2021/04/07 04:40:20;;;;;;;5.30;4.57;;;0.50;99.90;;;;;;5015560;28;20259;-39
2021/04/07 04:42:47;;;;;;;4.65;4.25;;;0.40;99.90;;;;;;5015625;28;20237;-39
2021/04/07 04:45:15;;;;;;;5.00;4.50;;;0.40;99.90;;;;;;5015599;28;20264;-38
2021/04/07 04:47:42;;;;;;;4.78;4.15;;;0.40;99.90;;;;;;5015184;28;20296;-38
2021/04/07 04:50:11;;;;;;;5.07;4.47;;;0.40;99.90;;;;;;5015573;28;20214;-38
2021/04/07 04:52:39;;;;;;;5.38;4.88;;;0.40;99.90;;;;;;5015468;28;20293;-38
2021/04/07 04:55:08;;;;;;;4.80;4.40;;;0.40;99.90;;;;;;5015321;28;20236;-38
2021/04/07 04:57:35;;;;;;;4.95;4.45;;;0.40;99.90;;;;;;5015287;28;20221;-38
2021/04/07 05:00:03;;;;;;;5.38;4.97;;;0.50;99.90;;;;;;5014800;28;20288;-38
2021/04/07 05:02:30;;;;;;;5.45;4.90;;;0.50;99.90;;;;;;5014722;28;20747;-39
2021/04/07 05:04:57;;;;;;;5.10;4.60;;;0.50;99.90;;;;;;5015150;28;20297;-39
2021/04/07 05:07:24;;;;;;;5.32;4.85;;;0.60;99.90;;;;;;5015103;28;20292;-39
2021/04/07 05:09:52;;;;;;;7.70;5.38;;;0.60;99.90;;;;;;5014556;28;20573;-39
2021/04/07 05:12:19;;;;;;;6.28;5.68;;;0.60;99.90;;;;;;5014659;28;20213;-40
2021/04/07 05:14:48;;;;;;;6.22;4.53;;;0.60;99.90;;;;;;5014560;28;20252;-40
2021/04/07 05:17:15;;;;;;;5.13;4.72;;;0.70;99.90;;;;;;5014594;28;20230;-40
2021/04/07 05:19:42;;;;;;;6.20;5.40;;;0.70;99.90;;;;;;5014561;28;20209;-40
2021/04/07 05:22:10;;;;;;;5.30;4.82;;;0.70;99.90;;;;;;5014582;28;20235;-40
2021/04/07 05:24:37;;;;;;;5.00;4.53;;;0.80;99.90;;;;;;5014577;28;20214;-40
2021/04/07 05:27:05;;;;;;;6.28;5.78;;;0.80;99.90;;;;;;5014617;28;20335;-39
2021/04/07 05:29:32;;;;;;;5.03;4.63;;;0.90;99.90;;;;;;5014560;28;20339;-39
2021/04/07 05:31:59;;;;;;;6.32;5.70;;;1.00;99.90;;;;;;5014749;28;20237;-40
2021/04/07 05:34:27;;;;;;;13.48;11.13;;;1.10;99.90;;;;;;5014489;28;20209;-39
2021/04/07 05:36:55;;;;;;;7.43;6.63;;;1.20;99.90;;;;;;5014317;28;20221;-42
2021/04/07 05:39:22;;;;;;;9.15;6.13;;;1.30;99.90;;;;;;5014675;28;20296;-40
2021/04/07 05:41:49;;;;;;;6.82;6.20;;;1.30;99.90;;;;;;5014592;28;20233;-37
2021/04/07 05:44:17;;;;;;;6.30;5.65;;;1.30;99.90;;;;;;5014636;28;20241;-39
2021/04/07 05:46:44;;;;;;;5.40;4.60;;;1.30;99.90;;;;;;5014661;28;20288;-39
2021/04/07 05:49:11;;;;;;;7.80;6.05;;;1.30;99.90;;;;;;5014245;28;20225;-38
2021/04/07 05:51:38;;;;;;;7.55;6.57;;;1.40;99.90;;;;;;5014052;28;20637;-38
2021/04/07 05:54:05;;;;;;;5.20;4.70;;;1.40;99.90;;;;;;5014777;28;20260;-39
2021/04/07 05:56:32;;;;;;;4.60;4.20;;;1.50;99.90;;;;;;5014315;28;20295;-39
2021/04/07 05:58:59;;;;;;;5.38;4.45;;;1.40;99.90;;;;;;5014278;28;20220;-39
2021/04/07 06:01:27;;;;;;;8.73;5.93;;;1.40;99.90;;;;;;5014646;28;20210;-40
2021/04/07 06:03:54;;;;;;;10.20;7.03;;;1.40;99.90;;;;;;5014154;28;20279;-39
2021/04/07 06:06:22;;;;;;;5.40;4.88;;;1.40;99.90;;;;;;5014150;28;20205;-39
2021/04/07 06:08:49;;;;;;;8.18;6.10;;;1.40;99.90;;;;;;5013729;28;20332;-39
2021/04/07 06:11:18;;;;;;;5.13;4.63;;;1.50;99.90;;;;;;5014015;28;20566;-39
2021/04/07 06:13:46;;;;;;;5.65;5.00;;;1.50;99.90;;;;;;5013373;28;20205;-39
2021/04/07 06:16:13;;;;;;;5.70;5.03;;;1.50;99.90;;;;;;5013894;28;20267;-39
2021/04/07 06:18:42;;;;;;;6.40;5.45;;;1.60;99.90;;;;;;5013207;28;20306;-39
2021/04/07 06:21:11;;;;;;;6.63;5.20;;;1.60;99.90;;;;;;5013422;28;20217;-37
2021/04/07 06:23:39;;;;;;;8.68;6.25;;;1.70;99.90;;;;;;5012596;28;20237;-37
2021/04/07 06:26:06;;;;;;;6.93;5.63;;;1.70;99.90;;;;;;5013101;28;20290;-37
2021/04/07 06:28:33;;;;;;;5.53;4.35;;;1.90;99.90;;;;;;5013227;28;20248;-37
2021/04/07 06:31:00;;;;;;;5.03;4.07;;;1.80;99.90;;;;;;5012746;28;20281;-38
2021/04/07 06:33:30;;;;;;;4.40;4.00;;;1.70;99.90;;;;;;5012760;28;20209;-37
2021/04/07 06:35:59;;;;;;;7.47;5.13;;;1.70;99.90;;;;;;5012545;28;20213;-37
2021/04/07 06:38:27;;;;;;;5.30;4.30;;;1.60;99.90;;;;;;5012439;28;20739;-38
2021/04/07 06:40:55;;;;;;;6.20;5.60;;;1.70;99.90;;;;;;5012515;28;20205;-37
2021/04/07 06:43:26;;;;;;;5.50;5.00;;;1.80;99.90;;;;;;5012495;28;20260;-38
2021/04/07 06:45:53;;;;;;;5.13;4.57;;;2.00;99.90;;;;;;5012698;28;20643;-39
2021/04/07 06:48:20;;;;;;;6.60;5.95;;;2.10;99.90;;;;;;5012403;28;20323;-38
2021/04/07 06:50:50;;;;;;;5.38;4.88;;;2.10;99.90;;;;;;5012535;28;20309;-37
2021/04/07 06:53:19;;;;;;;9.00;6.07;;;2.00;99.90;;;;;;5013114;28;20304;-37
2021/04/07 06:55:46;;;;;;;7.78;5.07;;;1.90;99.90;;;;;;5012661;28;20675;-38
2021/04/07 06:58:13;;;;;;;6.95;5.53;;;1.90;99.90;;;;;;5012563;28;20481;-39
2021/04/07 07:00:42;;;;;;;8.98;5.68;;;1.90;99.90;;;;;;5012636;28;20296;-41
2021/04/07 07:03:12;;;;;;;5.85;5.28;;;1.90;99.90;;;;;;5012708;28;20217;-41
2021/04/07 07:05:41;;;;;;;6.43;5.82;;;2.00;99.90;;;;;;5012683;28;20244;-41
2021/04/07 07:08:12;;;;;;;6.55;4.72;;;1.90;99.90;;;;;;5012992;28;20205;-41
2021/04/07 07:10:42;;;;;;;6.10;5.60;;;1.80;99.90;;;;;;5012514;28;20213;-41
2021/04/07 07:13:11;;;;;;;8.63;5.18;;;1.70;99.90;;;;;;5012359;28;20304;-41
2021/04/07 07:15:38;;;;;;;6.72;5.82;;;1.80;99.90;;;;;;5011505;28;20216;-41
2021/04/07 07:18:06;;;;;;;7.13;4.75;;;1.80;99.90;;;;;;5012396;28;20260;-41
2021/04/07 07:20:35;;;;;;;5.22;4.72;;;1.90;99.90;;;;;;5012472;28;20664;-41
2021/04/07 07:23:03;;;;;;;5.55;5.07;;;2.00;99.90;;;;;;5028071;28;20208;-41
2021/04/07 07:25:31;;;;;;;7.03;6.03;;;2.30;99.90;;;;;;5031626;28;20278;-41
2021/04/07 07:28:01;;;;;;;8.13;5.18;;;2.50;99.90;;;;;;5032005;28;20255;-40
2021/04/07 07:30:42;;;;;;;4.78;4.38;;;2.70;99.90;;;;;;5031923;28;20216;-41
2021/04/07 07:33:20;;;;;;;6.88;5.55;;;2.60;99.90;;;;;;5032091;28;20236;-41
2021/04/07 07:35:49;;;;;;;7.28;5.97;;;2.60;99.90;;;;;;5031968;28;20286;-41
2021/04/07 07:38:24;;;;;;;6.18;5.18;;;2.60;99.90;;;;;;5031439;28;20291;-41
2021/04/07 07:40:59;;;;;;;6.13;5.00;;;2.60;99.90;;;;;;5031627;28;20212;-41
2021/04/07 07:43:27;;;;;;;7.38;4.82;;;2.60;99.90;;;;;;5031973;28;20211;-40
2021/04/07 07:46:07;;;;;;;5.88;4.97;;;2.60;99.90;;;;;;5031782;28;20208;-40
2021/04/07 07:48:34;;;;;;;7.65;5.05;;;2.70;99.90;;;;;;5031677;28;20243;-40
2021/04/07 07:51:12;;;;;;;5.35;4.68;;;2.70;99.90;;;;;;5031516;28;20243;-44
2021/04/07 07:53:39;;;;;;;7.47;5.53;;;2.50;99.90;;;;;;5031722;28;20212;-40
2021/04/07 07:56:07;;;;;;;6.10;5.28;;;2.40;99.90;;;;;;5031855;28;20310;-41
2021/04/07 07:58:41;;;;;;;6.93;5.25;;;2.30;99.90;;;;;;5031438;28;20687;-40
2021/04/07 08:01:11;;;;;;;5.38;4.88;;;2.10;99.90;;;;;;5031743;28;20603;-40
2021/04/07 08:03:38;;;;;;;5.70;5.13;;;2.10;99.90;;;;;;5031590;28;20239;-41
2021/04/07 08:06:06;;;;;;;6.18;4.75;;;2.20;99.90;;;;;;5031884;28;20597;-41
2021/04/07 08:08:46;;;;;;;6.13;4.85;;;2.30;99.90;;;;;;5031924;28;20211;-41
2021/04/07 08:11:14;;;;;;;5.55;5.05;;;2.50;99.90;;;;;;5031815;28;20270;-40
2021/04/07 08:13:45;;;;;;;6.75;5.35;;;2.70;99.90;;;;;;5031407;28;20683;-40
2021/04/07 08:16:16;;;;;;;5.05;4.45;;;2.90;99.90;;;;;;5031497;28;20625;-42
2021/04/07 08:18:45;;;;;;;5.20;4.70;;;3.20;99.70;;;;;;5031723;28;20274;-42
2021/04/07 08:21:14;;;;;;;4.72;4.20;;;3.40;99.30;;;;;;5031741;28;20231;-41
2021/04/07 08:23:43;;;;;;;6.93;4.38;;;3.40;97.80;;;;;;5031690;28;20295;-41
2021/04/07 08:26:11;;;;;;;4.32;3.92;;;3.30;97.90;;;;;;5031528;28;20267;-41
2021/04/07 08:28:41;;;;;;;5.65;4.00;;;3.40;98.30;;;;;;5031360;28;20636;-41
2021/04/07 08:31:13;;;;;;;5.28;4.78;;;3.60;98.30;;;;;;5031546;28;20212;-41
2021/04/07 08:33:44;;;;;;;5.38;4.45;;;3.80;97.80;;;;;;5031579;28;20208;-41
2021/04/07 08:36:12;;;;;;;5.22;4.30;;;3.90;97.50;;;;;;5031419;28;20296;-41
2021/04/07 08:38:39;;;;;;;5.32;4.35;;;4.00;97.30;;;;;;5031383;28;20319;-41
2021/04/07 08:41:10;;;;;;;4.43;4.03;;;4.10;97.50;;;;;;5031320;28;20240;-41
2021/04/07 08:43:38;;;;;;;3.78;3.47;;;4.10;97.50;;;;;;5031378;28;20771;-41
2021/04/07 08:46:13;;;;;;;6.18;4.43;;;4.00;97.70;;;;;;5033664;28;20284;-41
2021/04/07 08:48:40;;;;;;;5.63;4.70;;;4.00;98.00;;;;;;5035089;28;20211;-42
2021/04/07 08:51:10;;;;;;;6.90;4.70;;;4.00;97.70;;;;;;5035017;28;20212;-41
2021/04/07 08:53:42;;;;;;;5.65;3.63;;;4.20;97.50;;;;;;5035102;28;20271;-40
2021/04/07 08:56:11;;;;;;;3.92;3.53;;;4.30;97.00;;;;;;5034626;28;20204;-41
2021/04/07 08:58:49;;;;;;;7.03;3.53;;;4.10;97.10;;;;;;5035057;28;20233;-40
2021/04/07 09:01:22;;;;;;;3.58;3.15;;;3.60;98.50;;;;;;5035001;28;20270;-42
2021/04/07 09:03:49;;;;;;;5.50;4.00;;;3.00;99.60;;;;;;5034994;28;20279;-41
2021/04/07 09:06:16;;;;;;;7.10;4.32;;;2.70;99.90;;;;;;5035363;28;20208;-41
2021/04/07 09:08:53;;;;;;;4.63;3.65;;;2.50;99.90;;;;;;5035299;28;20208;-41
2021/04/07 09:11:28;;;;;;;5.47;3.72;;;2.60;99.90;;;;;;5035016;28;20208;-42
2021/04/07 09:14:00;;;;;;;6.38;3.60;;;2.80;99.90;;;;;;5035297;28;20258;-41
2021/04/07 09:16:37;;;;;;;3.25;2.95;;;3.10;99.90;;;;;;5034859;28;20683;-41
2021/04/07 09:19:16;;;;;;;5.13;2.63;;;3.50;99.40;;;;;;5034976;28;20268;-41
2021/04/07 09:22:05;;;;;;;7.30;3.20;;;3.80;98.40;;;;;;5034890;28;20290;-42
2021/04/07 09:24:37;;;;;;;4.38;3.95;;;3.80;96.90;;;;;;5034506;28;20213;-42
2021/04/07 09:27:06;;;;;;;4.38;3.33;;;3.70;97.60;;;;;;5034586;28;20248;-41
2021/04/07 09:29:38;;;;;;;4.32;2.85;;;3.70;97.80;;;;;;5034835;28;20258;-40
2021/04/07 09:32:15;;;;;;;3.42;2.85;;;3.60;97.60;;;;;;5034638;28;20212;-41
2021/04/07 09:34:42;;;;;;;4.22;2.90;;;3.50;97.50;;;;;;5034462;28;20315;-42
2021/04/07 09:37:10;;;;;;;4.25;2.60;;;3.30;97.60;;;;;;5034331;28;20663;-39
2021/04/07 09:39:38;;;;;;;4.53;3.40;;;3.10;97.30;;;;;;5034652;28;20263;-39
2021/04/07 09:42:06;;;;;;;3.47;2.97;;;2.80;97.60;;;;;;5035247;28;20699;-39
2021/04/07 09:44:33;;;;;;;2.83;2.55;;;2.80;97.70;;;;;;5034442;28;20316;-39
2021/04/07 09:47:00;;;;;;;4.13;2.00;;;2.90;97.60;;;;;;5034604;28;20263;-39
2021/04/07 09:49:29;;;;;;;4.13;2.88;;;3.20;97.20;;;;;;5034651;28;20255;-41
2021/04/07 09:51:57;;;;;;;5.15;2.58;;;3.50;96.00;;;;;;5034640;28;20219;-39
2021/04/07 09:54:26;;;;;;;4.80;2.13;;;3.90;95.20;;;;;;5034086;28;20574;-40
2021/04/07 09:56:58;;;;;;;2.42;2.17;;;4.20;94.70;;;;;;5032997;28;20263;-40
2021/04/07 09:59:37;;;;;;;2.55;1.65;;;4.50;92.30;;;;;;5033935;28;20228;-41
2021/04/07 10:02:06;;;;;;;3.33;2.20;;;4.60;91.30;;;;;;5034153;28;20212;-41
2021/04/07 10:04:36;;;;;;;2.80;1.92;;;4.60;91.80;;;;;;5033819;28;20209;-40
2021/04/07 10:07:15;;;;;;;6.40;1.98;;;4.50;91.90;;;;;;5033860;28;20284;-40
2021/04/07 10:09:45;;;;;;;6.78;2.65;;;4.00;94.00;;;;;;5033901;28;20598;-39
2021/04/07 10:12:15;;;;;;;4.63;2.17;;;3.50;95.00;;;;;;5033676;28;20231;-41
2021/04/07 10:14:47;;;;;;;2.05;1.88;;;3.30;95.90;;;;;;5033421;28;20219;-41
2021/04/07 10:17:16;;;;;;;5.72;2.53;;;3.30;95.90;;;;;;5033766;28;20262;-43
2021/04/07 10:19:46;;;;;;;4.85;4.32;;;3.50;95.80;;;;;;5034969;28;20212;-41
2021/04/07 10:22:15;;;;;;;3.13;1.95;;;3.60;95.30;;;;;;5033651;28;20255;-40
2021/04/07 10:24:44;;;;;;;3.13;1.90;;;3.80;95.00;;;;;;5033835;28;20243;-41
2021/04/07 10:27:18;;;;;;;2.85;2.50;;;4.20;94.50;;;;;;5033279;28;20283;-41
2021/04/07 10:29:45;;;;;;;3.65;2.20;;;4.50;93.80;;;;;;5033862;28;20334;-41
2021/04/07 10:32:15;;;;;;;4.25;2.53;;;4.80;93.20;;;;;;5033623;28;20251;-41
2021/04/07 10:34:44;;;;;;;4.35;3.00;;;4.80;93.40;;;;;;5040888;28;20652;-41
2021/04/07 10:37:12;;;;;;;6.32;2.70;;;4.70;93.00;;;;;;5033309;28;20217;-40
2021/04/07 10:39:41;;;;;;;14.98;9.18;;;4.50;92.70;;;;;;5033691;28;20291;-40
2021/04/07 10:42:10;;;;;;;2.92;2.22;;;4.40;92.40;;;;;;5032988;28;20209;-40
2021/04/07 10:44:37;;;;;;;3.22;2.15;;;4.30;92.20;;;;;;5033020;28;20209;-40
2021/04/07 10:47:14;;;;;;;3.40;2.40;;;4.40;92.10;;;;;;5033025;28;20235;-41
2021/04/07 10:49:52;;;;;;;2.13;1.90;;;4.60;92.00;;;;;;5033309;28;20214;-41
2021/04/07 10:52:30;;;;;;;3.03;1.95;;;4.90;91.70;;;;;;5033532;28;20209;-41
2021/04/07 10:54:57;;;;;;;3.38;2.10;;;5.20;91.00;;;;;;5033247;28;20623;-39
2021/04/07 10:57:32;;;;;;;3.25;2.08;;;5.40;90.60;;;;;;5033374;28;20383;-41
2021/04/07 11:00:00;;;;;;;2.65;1.52;;;5.30;90.00;;;;;;5036417;28;20302;-40
2021/04/07 11:02:27;;;;;;;3.80;2.08;;;5.20;88.40;;;;;;5033487;28;20343;-40
2021/04/07 11:04:55;;;;;;;2.70;1.98;;;5.10;89.20;;;;;;5033251;28;20274;-39
2021/04/07 11:07:22;;;;;;;3.45;1.83;;;5.00;89.30;;;;;;5033602;28;20300;-41
2021/04/07 11:09:50;;;;;;;3.55;2.30;;;5.00;89.00;;;;;;5033708;28;20292;-41
2021/04/07 11:12:21;;;;;;;2.38;1.98;;;5.10;88.60;;;;;;5032591;28;20209;-41
2021/04/07 11:14:52;;;;;;;4.07;2.13;;;5.20;88.60;;;;;;5032671;28;20227;-40
2021/04/07 11:17:19;;;;;;;2.45;1.85;;;5.50;86.60;;;;;;5032215;28;20209;-40
2021/04/07 11:19:47;;;;;;;3.60;2.20;;;5.60;85.00;;;;;;5032508;28;20208;-41
2021/04/07 11:22:16;;;;;;;4.53;1.90;;;5.70;84.30;;;;;;5032413;28;20254;-41
2021/04/07 11:24:43;;;;;;;2.67;1.80;;;5.70;83.70;;;;;;5032130;28;20212;-40
2021/04/07 11:27:10;;;;;;;2.25;1.80;;;5.70;83.40;;;;;;5031939;28;20275;-40
2021/04/07 11:29:38;;;;;;;3.50;2.08;;;5.60;82.80;;;;;;5031967;28;20208;-40
2021/04/07 11:32:07;;;;;;;2.70;1.92;;;5.70;83.60;;;;;;5031904;28;20205;-40
2021/04/07 11:34:58;;;;;;;2.75;2.05;;;5.80;80.40;;;;;;5032328;28;20205;-40
2021/04/07 11:37:33;;;;;;;2.30;2.05;;;5.80;80.40;;;;;;5032191;28;20690;-40
2021/04/07 11:40:05;;;;;;;3.97;1.90;;;5.80;79.90;;;;;;5031936;28;20218;-39
2021/04/07 11:42:46;;;;;;;2.28;1.80;;;5.70;80.10;;;;;;5032283;28;20226;-41
2021/04/07 11:45:15;;;;;;;3.20;2.20;;;5.70;80.80;;;;;;5032130;28;20278;-41
2021/04/07 11:47:42;;;;;;;2.03;1.90;;;5.50;80.50;;;;;;5031920;28;20659;-40
2021/04/07 11:50:10;;;;;;;3.65;2.17;;;5.70;80.80;;;;;;5031882;28;20671;-41
2021/04/07 11:52:38;;;;;;;4.40;2.10;;;5.90;79.30;;;;;;5031901;28;20213;-40
2021/04/07 11:55:06;;;;;;;3.28;2.00;;;6.10;78.60;;;;;;5032082;28;20629;-40
2021/04/07 11:57:33;;;;;;;3.53;2.25;;;6.20;78.40;;;;;;5031967;28;20292;-41
2021/04/07 12:00:00;;;;;;;2.78;1.70;;;6.20;77.00;;;;;;5031916;28;20577;-40
2021/04/07 12:02:27;;;;;;;2.20;1.45;;;6.10;76.70;;;;;;5032266;28;20304;-40
2021/04/07 12:04:54;;;;;;;2.65;2.00;;;6.00;76.30;;;;;;5033306;28;20294;-40
2021/04/07 12:07:22;;;;;;;2.20;2.00;;;6.10;76.50;;;;;;5032372;28;20304;-40
2021/04/07 12:09:50;;;;;;;2.38;1.35;;;6.20;76.90;;;;;;5032987;28;20248;-40
2021/04/07 12:12:17;;;;;;;1.60;1.48;;;6.20;75.10;;;;;;5032640;28;20227;-40
2021/04/07 12:14:44;;;;;;;2.63;1.60;;;6.10;75.20;;;;;;5033979;28;20484;-40
2021/04/07 12:17:12;;;;;;;1.90;1.80;;;5.80;76.90;;;;;;5034280;28;20209;-41
2021/04/07 12:19:39;;;;;;;2.10;1.77;;;5.60;79.00;;;;;;5031583;28;20302;-40
2021/04/07 12:22:06;;;;;;;3.80;1.98;;;5.50;80.60;;;;;;5035382;28;20652;-40
2021/04/07 12:24:33;;;;;;;2.90;2.60;;;5.40;81.30;;;;;;5035650;28;20231;-40
2021/04/07 12:27:01;;;;;;;2.20;1.98;;;5.30;82.00;;;;;;5035960;28;20272;-40
2021/04/07 12:29:28;;;;;;;3.58;2.58;;;5.10;84.00;;;;;;5035739;28;20212;-40
2021/04/07 12:31:55;;;;;;;3.25;2.72;;;5.10;85.80;;;;;;5035379;28;20255;-40
2021/04/07 12:34:23;;;;;;;3.70;2.67;;;5.20;85.80;;;;;;5035863;28;20668;-40
2021/04/07 12:36:50;;;;;;;7.57;2.92;;;5.50;86.10;;;;;;5036556;28;20247;-41
2021/04/07 12:39:23;;;;;;;2.38;2.17;;;5.80;85.00;;;;;;5036332;28;20229;-39
2021/04/07 12:41:53;;;;;;;2.50;2.15;;;5.90;83.40;;;;;;5036493;28;20571;-40
2021/04/07 12:44:21;;;;;;;4.53;2.13;;;6.00;82.40;;;;;;5036509;28;20213;-41
2021/04/07 12:46:48;;;;;;;2.30;2.05;;;6.10;82.10;;;;;;5036086;28;20270;-40
2021/04/07 12:49:16;;;;;;;1.88;1.67;;;6.30;81.50;;;;;;5036504;28;20205;-41
2021/04/07 12:51:43;;;;;;;2.65;1.63;;;6.40;79.60;;;;;;5036327;28;20208;-41
2021/04/07 12:54:13;;;;;;;3.00;2.80;;;6.40;78.60;;;;;;5036247;28;20216;-40
2021/04/07 12:56:40;;;;;;;3.38;2.75;;;6.20;78.90;;;;;;5036161;28;20212;-40
2021/04/07 12:59:08;;;;;;;2.22;2.03;;;6.10;79.70;;;;;;5036225;28;20225;-41
2021/04/07 13:01:36;;;;;;;2.78;2.00;;;6.20;79.50;;;;;;5036000;28;20307;-42
2021/04/07 13:04:04;;;;;;;2.95;1.77;;;6.20;79.60;;;;;;5035987;28;20251;-41
2021/04/07 13:06:31;;;;;;;2.60;1.92;;;6.10;80.00;;;;;;5036081;28;20629;-43